This is the latest recevied weather packets stored in our database for station/object OE3WYC-1. If no packets are shown the sender has not sent any weather packets the latest 10 day(s).
| Time | Temp. | Humidity | Pressure | Rain* | Wind** | Luminosity | Snow |
|---|---|---|---|---|---|---|---|
| 1778290506 | 12.22° C | 73% | 1017.1 hPa | 0 mm | - | - | - |
| 1778290204 | 12.22° C | 73% | 1017 hPa | 0 mm | - | - | - |
| 1778289305 | 12.22° C | 72% | 1016.9 hPa | 0 mm | - | - | - |
| 1778289004 | 12.22° C | 72% | 1016.9 hPa | 0 mm | - | - | - |
| 1778281205 | 13.89° C | 67% | 1016.9 hPa | 0 mm | - | - | - |
| 1778280305 | 14.44° C | 67% | 1016.8 hPa | 0 mm | - | - | - |
| 1778277304 | 15° C | 64% | 1016.8 hPa | 0 mm | - | - | - |
| 1778275504 | 15.56° C | 62% | 1016.6 hPa | 0 mm | - | - | - |
| 1778275204 | 15.56° C | 62% | 1016.5 hPa | 0 mm | - | - | - |
| 1778274304 | 15.56° C | 60% | 1016.4 hPa | 0 mm | - | - | - |
| 1778272206 | 16.11° C | 57% | 1016.1 hPa | 0 mm | - | - | - |
| 1778260805 | 20.56° C | 44% | 1014.1 hPa | 0 mm | - | - | - |
| 1778259905 | 21.11° C | 43% | 1014.1 hPa | 0 mm | - | - | - |
| 1778259305 | 21.11° C | 42% | 1013.9 hPa | 0 mm | - | - | - |
| 1778258404 | 21.11° C | 42% | 1014 hPa | 0 mm | - | - | - |
| 1778257804 | 21.67° C | 42% | 1013.8 hPa | 0 mm | - | - | - |
| 1778252406 | 21.67° C | 42% | 1014 hPa | 0 mm | - | - | - |
| 1778251804 | 21.67° C | 42% | 1014.1 hPa | 0 mm | - | - | - |
| 1778251205 | 21.67° C | 42% | 1014.2 hPa | 0 mm | - | - | - |
| 1778246704 | 21.67° C | 45% | 1014.8 hPa | 0 mm | - | - | - |
| 1778246104 | 21.11° C | 44% | 1014.7 hPa | 0 mm | - | - | - |
| 1778244604 | 21.11° C | 45% | 1015 hPa | 0 mm | - | - | - |
| 1778243704 | 21.11° C | 45% | 1015.1 hPa | 0 mm | - | - | - |
| 1778241304 | 21.11° C | 47% | 1015.2 hPa | 0 mm | - | - | - |
| 1778241005 | 21.11° C | 46% | 1015.3 hPa | 0 mm | - | - | - |
* Rain latest hour (hover to see other rain measurements)
** Current wind speed in m/s (hover to see current wind gust speed)